Torrington, WY

1:55 AM MDT on September 19, 2014 (GMT -0600)
Torrington Municipal | Change Station
CLOSE
Current Station
Airport
Location: Torrington,
Elevation: 4206 ft
Nearby Weather Stations

Elev 4206 ft 42.06 °N, 104.15 °W | Updated 1 hour ago

Clear
Clear
58 °F
Feels Like 58 °F
N
4
Wind Variable Wind from ENE

Today
High -- | Low -- °F
--% Chance of Precip.
Yesterday
High -- | Low -- °F
Precip. -- in
6:41 AM 6:59 PM
Waning Crescent, 21% visible
Pressure 29.71 in
Visibility 10.0 miles
Clouds Clear
Dew Point 56 °F
Humidity 93%
Rainfall 0.00 in
Snow Depth Not available.
UV 0 out of 12
Pollen 6.40 out of 12
Air Quality Not available.
Flu Activity Not available.
METAR KTOR 190653Z AUTO 07003KT 10SM CLR 14/13 A2985 RMK AO2 SLP059 T01440133 403280072

More Conditions Fewer Conditions

Pressure 29.71 in
Visibility 10.0 miles
Clouds Clear
Dew Point 56 °F
Humidity 93%
Rainfall 0.00 in
Snow Depth Not available.
UV 0 out of 12
Pollen 6.40 out of 12
Air Quality Not available.
Flu Activity Not available.
METAR KTOR 190653Z AUTO 07003KT 10SM CLR 14/13 A2985 RMK AO2 SLP059 T01440133 403280072

More Conditions Fewer Conditions

10-Day Weather Forecast

Almanac

Astronomy

Sep. 19, 2014 Rise Set
Actual Time 6:41 AM MDT 6:59 PM MDT
Civil Twilight 6:13 AM MDT 7:27 PM MDT
Nautical Twilight 5:40 AM MDT 7:59 PM MDT
Astronomical Twilight 5:06 AM MDT 8:33 PM MDT
Moon 2:24 AM MDT 4:32 PM MDT
Length of Visible Light 13h 14m
Length of Day
12h 18m
Tomorrow will be 2m 48s shorter.
Waning Crescent, 21% of the Moon is Illuminated
Today
Waning Crescent
Sep 24
New
Oct 1
First Quarter
Oct 8
Full
Oct 15
Last Quarter

Today's Extremes

State Highs State Lows

Community

WunderPhotos

Upload Photos

1,754,578 photos uploaded!

Nearby

Snow Depth

Station Depth Elevation
Little Warm 1 in 9370 ft
Blind Bull Summit 1 in 8900 ft
Reno Hill 0 in 8500 ft
Hams Fork 0 in 7840 ft
Middle Powder 0 in 7760 ft

Earthquake Activity

City Distance Mag. Time & Date
No recent earthquake activity has been reported nearby.
Minimum magnitude displayed is 2.5.

Coastal Water Temperatures

Place Temperature
No Stations Reporting

Nearby Weather Stations